Franklin Grove, IL

10:34 AM CDT on August 29, 2014 (GMT -0500)
Lost Lake Ogle County, Illinois | Change Station
CLOSE
Current Station
Personal Weather Station
Location: Dixon, IL
Elevation: 761 ft
Nearby Weather Stations

Elev 761 ft 41.91 °N, 89.35 °W | Updated 5 seconds ago

Clear
Clear
76.2 °F
Feels Like 77 °F
N
0.0
Wind Variable Wind from SSW
Gusts 4.0 mph

Today
High -- | Low -- °F
--% Chance of Precip.
Yesterday
High -- | Low -- °F
Precip. -- in
6:19 AM 7:35 PM
Waxing Crescent, 15% visible
Pressure 29.96 in
Visibility 10.0 miles
Clouds Clear
Heat Index 77 °F
Dew Point 73 °F
Humidity 89%
Rainfall 0.07 in
Snow Depth Not available.
UV 5 out of 12
Pollen 4.20 out of 12
Air Quality Not available.
Flu Activity Not available.
METAR KRPJ 291515Z AUTO 18009G15KT 10SM CLR 25/21 A2996 RMK AO2 T02500210

More Conditions Fewer Conditions

Pressure 29.96 in
Visibility 10.0 miles
Clouds Clear
Heat Index 77 °F
Dew Point 73 °F
Humidity 89%
Rainfall 0.07 in
Snow Depth Not available.
UV 5 out of 12
Pollen 4.20 out of 12
Air Quality Not available.
Flu Activity Not available.
METAR KRPJ 291515Z AUTO 18009G15KT 10SM CLR 25/21 A2996 RMK AO2 T02500210

More Conditions Fewer Conditions

10-Day Weather Forecast

Almanac

Astronomy

Aug. 29, 2014 Rise Set
Actual Time 6:19 AM CDT 7:35 PM CDT
Civil Twilight 5:51 AM CDT 8:04 PM CDT
Nautical Twilight 5:16 AM CDT 8:38 PM CDT
Astronomical Twilight 4:40 AM CDT 9:15 PM CDT
Moon 10:13 AM CDT 9:28 PM CDT
Length of Visible Light 14h 13m
Length of Day
13h 15m
Tomorrow will be 2m 40s shorter.
Waxing Crescent, 15% of the Moon is Illuminated
Today
Waxing Crescent
Sep 2
First Quarter
Sep 8
Full
Sep 15
Last Quarter
Sep 24
New

Today's Extremes

State Highs State Lows

Community

WunderPhotos

Upload Photos

1,748,265 photos uploaded!

Nearby

Snow Depth

Station Depth Elevation
No new snow has been reported.

Earthquake Activity

City Distance Mag. Time & Date
No recent earthquake activity has been reported nearby.
Minimum magnitude displayed is 2.5.

Coastal Water Temperatures

Place Temperature
No Stations Reporting

Nearby Weather Stations